Vivien A — TCYC4 — position and weather

sailwx.info

Track history (hours):
 
Tides and Currents Weather Stations Pressure Air Temp Water Temp Dewpoint Dewpoint Depression Visibility Wind Speed Wind Dir Waves Ship Positions

Vivien A

Last reported at 2017-Mar-25 03:34 UTC. Time now 2017-Mar-25 03:47 UTC.
Position N 44°11' E 008°53'.

Length 210 m; draft 9 m.

Type: Ship (hazmat cat B). MMSI: 271040635.

Date/timePositionNaut miles runAvg speedWind from/ knotsBaromVisibWave heightAir tempDewpointWater temp
2017-Mar-25 03:34N 44°11' E 008°53'1 0.9
2017-Mar-25 02:34N 44°12' E 008°53'5 4.6
2017-Mar-25 01:33N 44°11' E 008°59'10 9.9
2017-Mar-25 00:34N 44°09' E 009°13'1110.7
2017-Mar-24 23:34N 44°03' E 009°25'1010.3
2017-Mar-24 22:34N 43°58' E 009°37'10 9.9
2017-Mar-24 21:34N 44°00' E 009°50'6 5.9
2017-Mar-24 20:31N 44°06' E 009°50'0 0.0
2017-Mar-24 19:31N 44°06' E 009°50'0 0.0
2017-Mar-24 18:31N 44°06' E 009°50'0 0.0
2017-Mar-24 17:31N 44°06' E 009°50'0 0.0
2017-Mar-24 16:31N 44°06' E 009°50'0 0.0
2017-Mar-24 15:31N 44°06' E 009°50'0 0.0
2017-Mar-24 14:28N 44°06' E 009°50'0 0.0
2017-Mar-24 13:31N 44°06' E 009°50'0 0.0
2017-Mar-24 12:28N 44°06' E 009°50'0 0.0
2017-Mar-24 11:31N 44°06' E 009°50'0 0.0
2017-Mar-24 10:31N 44°06' E 009°50'0 0.0
2017-Mar-24 09:31N 44°06' E 009°50'0 0.0
2017-Mar-24 08:31N 44°06' E 009°50'0 0.0
2017-Mar-24 07:31N 44°06' E 009°50'0 0.0
2017-Mar-24 06:31N 44°06' E 009°50'0 0.0
2017-Mar-24 05:34N 44°06' E 009°50'7 6.8
2017-Mar-24 04:33N 44°01' E 009°56'1413.9
2017-Mar-24 03:34N 43°49' E 009°46'1615.6
2017-Mar-24 02:34N 43°38' E 009°30'1615.8
2017-Mar-24 01:34N 43°27' E 009°15'1616.0
2017-Mar-24 00:33N 43°16' E 008°58'35516.0
2017-Mar-23 02:16N 39°03' E 003°26'1114.8
2017-Mar-23 01:33N 38°57' E 003°15'1515.0
2017-Mar-23 00:33N 38°50' E 002°58'1514.9
2017-Mar-22 23:33N 38°43' E 002°42'1515.1
2017-Mar-22 22:33N 38°35' E 002°25'1515.0
2017-Mar-22 21:33N 38°27' E 002°09'6214.7
2017-Mar-22 17:22N 37°55' E 001°01'1714.6
2017-Mar-22 16:13N 37°46' E 000°43'1714.8
2017-Mar-22 15:06N 37°38' E 000°25'6714.6
2017-Mar-22 10:30N 37°03' W 000°47'23214.6
2017-Mar-21 18:33N 35°58' W 005°24'1817.7
2017-Mar-21 17:33N 35°53' W 005°45'57113.5
2017-Mar-19 23:24N 28°44' W 013°11'1113.2
2017-Mar-19 22:33N 28°35' W 013°18'  
2017-Mar-17 07:30N 15°32' W 017°55'1513.5
2017-Mar-17 06:23N 15°17' W 017°56'3913.8
2017-Mar-17 03:33N 14°38' W 017°55'1313.4
2017-Mar-17 02:33N 14°25' W 017°54'1313.4
2017-Mar-17 01:33N 14°12' W 017°54'1413.4
2017-Mar-17 00:30N 13°58' W 017°53'1613.2
2017-Mar-16 23:16N 13°41' W 017°53'913.0
2017-Mar-16 22:32N 13°32' W 017°53'9613.1
2017-Mar-16 15:12N 11°56' W 017°52'2313.8
2017-Mar-16 13:31N 11°33' W 017°51'4013.4
2017-Mar-16 10:32N 10°53' W 017°43'8514.0
2017-Mar-16 04:29N 09°48' W 016°49'3013.6
2017-Mar-16 02:18N 09°25' W 016°30'1013.7
2017-Mar-16 01:34N 09°17' W 016°23'1514.0
2017-Mar-16 00:29N 09°07' W 016°11'1314.2
2017-Mar-15 23:33N 08°59' W 016°01'1414.0
2017-Mar-15 22:32N 08°50' W 015°50'1313.8
2017-Mar-15 21:33N 08°41' W 015°40'2013.7
2017-Mar-15 20:05N 08°28' W 015°24'713.8
2017-Mar-15 19:33N 08°23' W 015°19'1414.0
2017-Mar-15 18:33N 08°14' W 015°08'1714.2
2017-Mar-15 17:23N 08°04' W 014°54'1214.1
2017-Mar-15 16:31N 07°56' W 014°45'1313.7
2017-Mar-15 15:33N 07°47' W 014°35'1413.8
2017-Mar-15 14:33N 07°39' W 014°24'  
Track history (hours):
 
Tides and Currents Weather Stations Pressure Air Temp Water Temp Dewpoint Dewpoint Depression Visibility Wind Speed Wind Dir Waves Ship Positions

Vivien A

Last reported at 2017-Mar-25 03:34 UTC. Time now 2017-Mar-25 03:47 UTC.
Position N 44°11' E 008°53'.

Length 210 m; draft 9 m.

Type: Ship (hazmat cat B). MMSI: 271040635.

Date/timePositionNaut miles runAvg speedWind from/ knotsBaromVisibWave heightAir tempDewpointWater temp
2017-Mar-25 03:34N 44°11' E 008°53'1 0.9
2017-Mar-25 02:34N 44°12' E 008°53'5 4.6
2017-Mar-25 01:33N 44°11' E 008°59'10 9.9
2017-Mar-25 00:34N 44°09' E 009°13'1110.7
2017-Mar-24 23:34N 44°03' E 009°25'1010.3
2017-Mar-24 22:34N 43°58' E 009°37'10 9.9
2017-Mar-24 21:34N 44°00' E 009°50'6 5.9
2017-Mar-24 20:31N 44°06' E 009°50'0 0.0
2017-Mar-24 19:31N 44°06' E 009°50'0 0.0
2017-Mar-24 18:31N 44°06' E 009°50'0 0.0
2017-Mar-24 17:31N 44°06' E 009°50'0 0.0
2017-Mar-24 16:31N 44°06' E 009°50'0 0.0
2017-Mar-24 15:31N 44°06' E 009°50'0 0.0
2017-Mar-24 14:28N 44°06' E 009°50'0 0.0
2017-Mar-24 13:31N 44°06' E 009°50'0 0.0
2017-Mar-24 12:28N 44°06' E 009°50'0 0.0
2017-Mar-24 11:31N 44°06' E 009°50'0 0.0
2017-Mar-24 10:31N 44°06' E 009°50'0 0.0
2017-Mar-24 09:31N 44°06' E 009°50'0 0.0
2017-Mar-24 08:31N 44°06' E 009°50'0 0.0
2017-Mar-24 07:31N 44°06' E 009°50'0 0.0
2017-Mar-24 06:31N 44°06' E 009°50'0 0.0
2017-Mar-24 05:34N 44°06' E 009°50'7 6.8
2017-Mar-24 04:33N 44°01' E 009°56'1413.9
2017-Mar-24 03:34N 43°49' E 009°46'1615.6
2017-Mar-24 02:34N 43°38' E 009°30'1615.8
2017-Mar-24 01:34N 43°27' E 009°15'1616.0
2017-Mar-24 00:33N 43°16' E 008°58'35516.0
2017-Mar-23 02:16N 39°03' E 003°26'1114.8
2017-Mar-23 01:33N 38°57' E 003°15'1515.0
2017-Mar-23 00:33N 38°50' E 002°58'1514.9
2017-Mar-22 23:33N 38°43' E 002°42'1515.1
2017-Mar-22 22:33N 38°35' E 002°25'1515.0
2017-Mar-22 21:33N 38°27' E 002°09'6214.7
2017-Mar-22 17:22N 37°55' E 001°01'1714.6
2017-Mar-22 16:13N 37°46' E 000°43'1714.8
2017-Mar-22 15:06N 37°38' E 000°25'6714.6
2017-Mar-22 10:30N 37°03' W 000°47'23214.6
2017-Mar-21 18:33N 35°58' W 005°24'1817.7
2017-Mar-21 17:33N 35°53' W 005°45'57113.5
2017-Mar-19 23:24N 28°44' W 013°11'1113.2
2017-Mar-19 22:33N 28°35' W 013°18'  
2017-Mar-17 07:30N 15°32' W 017°55'1513.5
2017-Mar-17 06:23N 15°17' W 017°56'3913.8
2017-Mar-17 03:33N 14°38' W 017°55'1313.4
2017-Mar-17 02:33N 14°25' W 017°54'1313.4
2017-Mar-17 01:33N 14°12' W 017°54'1413.4
2017-Mar-17 00:30N 13°58' W 017°53'1613.2
2017-Mar-16 23:16N 13°41' W 017°53'913.0
2017-Mar-16 22:32N 13°32' W 017°53'9613.1
2017-Mar-16 15:12N 11°56' W 017°52'2313.8
2017-Mar-16 13:31N 11°33' W 017°51'4013.4
2017-Mar-16 10:32N 10°53' W 017°43'8514.0
2017-Mar-16 04:29N 09°48' W 016°49'3013.6
2017-Mar-16 02:18N 09°25' W 016°30'1013.7
2017-Mar-16 01:34N 09°17' W 016°23'1514.0
2017-Mar-16 00:29N 09°07' W 016°11'1314.2
2017-Mar-15 23:33N 08°59' W 016°01'1414.0
2017-Mar-15 22:32N 08°50' W 015°50'1313.8
2017-Mar-15 21:33N 08°41' W 015°40'2013.7
2017-Mar-15 20:05N 08°28' W 015°24'713.8
2017-Mar-15 19:33N 08°23' W 015°19'1414.0
2017-Mar-15 18:33N 08°14' W 015°08'1714.2
2017-Mar-15 17:23N 08°04' W 014°54'1214.1
2017-Mar-15 16:31N 07°56' W 014°45'1313.7
2017-Mar-15 15:33N 07°47' W 014°35'1413.8
2017-Mar-15 14:33N 07°39' W 014°24'  

Dump ship's entire track history